Terminal Aerodrome Forecast
Issued by NWS

Home | Current Version | Previous Version | Text Only | Print | Product List | Glossary On
Versions: 1 2 3 4 5 6 7 8 9 10 11 12 13 14 15 16 17 18 19 20 21 22 23
000
FTUS41 KPBZ 050532
TAFDUJ
TAF
KDUJ 050532Z 0506/0606 23008KT P6SM SCT060
     FM051400 30010G17KT P6SM BKN040
     FM060100 VRB04KT P6SM SCT040=

USA.gov is the U.S. government's official web portal to all federal, state and local government web resources and services.